ADDS METAR Data INFO
IDs: Format: Raw Decoded Include TAF

Data at: 1531 UTC 18 Jun 2018

KWLD 181454Z AUTO 18014KT 10SM SCT022 28/22 A3003 RMK AO2 SLP155 T02780222 51011
KWLD 181435Z AUTO 18013KT 10SM BKN021 28/22 A3003 RMK AO2 T02780222
KWLD 181354Z AUTO 19011KT 10SM CLR 27/22 A3003 RMK AO2 SLP154 T02720222
KWLD 181254Z AUTO 17014KT 10SM CLR 25/22 A3002 RMK AO2 SLP151 T02500217
KWLD 181154Z AUTO 17012KT 10SM CLR 24/21 A3000 RMK AO2 SLP144 T02390211 10250 20228 51007
KWLD 181054Z AUTO 16008KT 10SM CLR 23/21 A2999 RMK AO2 SLP143 T02330211
KWLD 180954Z AUTO 16007KT 10SM CLR 23/21 A2999 RMK AO2 SLP140 T02330211
KWLD 180854Z AUTO 17007KT 10SM CLR 24/21 A2998 RMK AO2 SLP136 T02390211 53004
KWLD 180754Z AUTO 14007KT 10SM CLR 24/21 A2997 RMK AO2 SLP134 T02440211
KWLD 180654Z AUTO 16005KT 10SM CLR 24/21 A2996 RMK AO2 SLP132 T02390211
KWLD 180554Z AUTO 16007KT 10SM CLR 24/21 A2996 RMK AO2 SLP133 T02440211 10311 20244 403440244 51001
KWLD 180454Z AUTO 15007KT 10SM CLR 26/21 A2996 RMK AO2 SLP132 T02560211
KWLD 180354Z AUTO 15006KT 10SM CLR 26/21 A2997 RMK AO2 SLP136 T02610211
KWLD 180254Z AUTO 15007KT 10SM CLR 27/21 A2996 RMK AO2 SLP132 T02720206 53010
KWLD 180154Z AUTO 15011KT 10SM CLR 29/21 A2995 RMK AO2 SLP127 T02890206
KWLD 180054Z AUTO 15012G20KT 10SM CLR 30/21 A2994 RMK AO2 SLP125 T03000206
KWLD 172354Z AUTO 16017G25KT 10SM CLR 31/21 A2993 RMK AO2 PK WND 17027/2316 SLP121 T03110206 10344 20311 55003
KWLD 172254Z AUTO 16019G25KT 10SM CLR 32/20 A2992 RMK AO2 PK WND 16026/2217 SLP118 T03220200
KWLD 172154Z AUTO 17020G26KT 10SM CLR 33/20 A2993 RMK AO2 PK WND 17026/2114 SLP120 T03330200
KWLD 172054Z AUTO 16017G24KT 10SM CLR 34/19 A2994 RMK AO2 PK WND 17029/1955 SLP122 T03390194 56011
KWLD 171954Z AUTO 17018G26KT 10SM CLR 34/19 A2995 RMK AO2 PK WND 16031/1915 SLP125 T03390189
KWLD 171854Z AUTO 18018G28KT 10SM CLR 34/18 A2996 RMK AO2 PK WND 16028/1842 SLP130 T03390178
KWLD 171754Z AUTO 17016G26KT 10SM CLR 32/19 A2997 RMK AO2 PK WND 18026/1747 SLP134 T03220194 10328 20250 58002
KWLD 171654Z AUTO 17016G25KT 10SM CLR 32/20 A2998 RMK AO2 PK WND 17028/1615 SLP136 T03220200
KWLD 171554Z AUTO 16019G24KT 10SM CLR 31/21 A2998 RMK AO2 SLP140 T03060211
KWLD 171454Z AUTO 18015KT 10SM CLR 28/22 A2998 RMK AO2 SLP137 T02830217 51019
KWLD 171354Z AUTO 16011KT 10SM CLR 26/21 A2997 RMK AO2 SLP135 T02610211
KWLD 171254Z AUTO 16010KT 9SM CLR 26/21 A2995 RMK AO2 SLP127 T02560206
KWLD 171154Z AUTO 17012KT 10SM CLR 25/20 A2992 RMK AO2 SLP118 T02500200 10256 20244 53008
KWLD 171054Z AUTO 17012KT 10SM CLR 25/20 A2990 RMK AO2 SLP112 T02500200
KWLD 170954Z AUTO 16010KT 10SM CLR 25/20 A2990 RMK AO2 SLP112 T02500200
KWLD 170854Z AUTO 17012KT 10SM CLR 26/20 A2990 RMK AO2 SLP109 T02560200 56007
KWLD 170754Z AUTO 17014KT 10SM CLR 26/20 A2990 RMK AO2 SLP109 T02560200
KWLD 170654Z AUTO 15008KT 10SM CLR 25/21 A2990 RMK AO2 SLP112 T02500206
KWLD 170554Z AUTO 17010KT 10SM CLR 26/21 A2992 RMK AO2 SLP115 T02560206 10306 20256 403440233 53009
KWLD 170454Z AUTO 16009KT 10SM CLR 26/21 A2990 RMK AO2 SLP110 T02610206
KWLD 170354Z AUTO 16009KT 10SM CLR 26/21 A2990 RMK AO2 SLP111 T02610211